createdAt,value
2018-02-04T00:00:38.885Z,98649.55
2018-02-04T00:03:06.458Z,98658.18
2018-02-04T00:05:34.082Z,98658.91
2018-02-04T00:08:01.719Z,98663.80
2018-02-04T00:10:29.298Z,98665.28
2018-02-04T00:12:57.007Z,98671.11
2018-02-04T00:15:24.644Z,98669.47
2018-02-04T00:17:52.220Z,98669.55
2018-02-04T00:20:19.850Z,98665.93
2018-02-04T00:22:47.478Z,98668.39
2018-02-04T00:25:15.076Z,98667.53
2018-02-04T00:27:42.701Z,98672.36
2018-02-04T00:30:10.314Z,98682.78
2018-02-04T00:32:37.884Z,98687.95
2018-02-04T00:35:05.450Z,98688.75
2018-02-04T00:37:33.025Z,98685.44
2018-02-04T00:40:00.572Z,98692.89
2018-02-04T00:42:28.147Z,98685.54
2018-02-04T00:44:55.717Z,98678.09
2018-02-04T00:47:23.330Z,98670.33
2018-02-04T00:49:50.975Z,98676.36
2018-02-04T00:52:18.595Z,98680.98
2018-02-04T00:54:47.026Z,98675.53
2018-02-04T00:57:14.566Z,98659.59
2018-02-04T00:59:42.148Z,98666.42
2018-02-04T01:02:09.767Z,98677.41
2018-02-04T01:04:37.386Z,98686.23
2018-02-04T01:07:05.059Z,98712.59
2018-02-04T01:09:32.626Z,98707.11
2018-02-04T01:12:00.193Z,98706.98
2018-02-04T01:14:27.749Z,98720.78
2018-02-04T01:16:55.332Z,98716.15
2018-02-04T01:19:22.964Z,98717.70
2018-02-04T01:21:50.676Z,98714.70
2018-02-04T01:24:18.251Z,98729.92
2018-02-04T01:26:45.818Z,98745.00
2018-02-04T01:29:13.414Z,98730.41
2018-02-04T01:31:41.039Z,98736.52
2018-02-04T01:34:08.612Z,98742.00
2018-02-04T01:36:36.246Z,98755.88
2018-02-04T01:39:03.999Z,98760.45
2018-02-04T01:41:31.622Z,98774.86
2018-02-04T01:43:59.202Z,98787.70
2018-02-04T01:46:26.848Z,98804.58
2018-02-04T01:48:54.414Z,98812.31
2018-02-04T01:51:22.053Z,98816.16
2018-02-04T01:53:49.601Z,98826.41
2018-02-04T01:56:17.202Z,98849.87
2018-02-04T01:58:44.839Z,98858.67
2018-02-04T02:01:12.425Z,98855.66
2018-02-04T02:03:39.999Z,98869.53
2018-02-04T02:06:07.561Z,98891.25
2018-02-04T02:08:35.130Z,98906.44
2018-02-04T02:11:02.755Z,98902.70
2018-02-04T02:13:30.361Z,98918.98
2018-02-04T02:15:57.970Z,98941.67
2018-02-04T02:18:25.522Z,98954.36
2018-02-04T02:20:53.162Z,98970.02
2018-02-04T02:23:20.725Z,98981.31
2018-02-04T02:25:48.290Z,98993.62
2018-02-04T02:28:15.846Z,99005.86
2018-02-04T02:30:43.515Z,99003.42
2018-02-04T02:33:11.124Z,98996.58
2018-02-04T02:35:38.681Z,98996.80
2018-02-04T02:38:06.303Z,98987.41
2018-02-04T02:40:33.861Z,98985.23
2018-02-04T02:43:01.425Z,98981.52
2018-02-04T02:45:28.980Z,98985.78
2018-02-04T02:47:56.590Z,98993.32
2018-02-04T02:50:24.206Z,99003.33
2018-02-04T02:52:52.490Z,99000.83
2018-02-04T02:55:20.053Z,99004.77
2018-02-04T02:57:47.735Z,99000.55
2018-02-04T03:00:15.321Z,98998.19
2018-02-04T03:02:42.879Z,99000.36
2018-02-04T03:05:10.487Z,99008.00
2018-02-04T03:07:38.098Z,99022.99
2018-02-04T03:10:05.657Z,99029.71
2018-02-04T03:12:33.222Z,99037.53
2018-02-04T03:15:00.774Z,99045.78
2018-02-04T03:17:28.344Z,99042.95
2018-02-04T03:19:55.897Z,99039.52
2018-02-04T03:22:23.562Z,99047.58
2018-02-04T03:24:51.161Z,99058.65
2018-02-04T03:27:18.726Z,99051.42
2018-02-04T03:29:46.293Z,99063.41
2018-02-04T03:32:13.850Z,99057.20
2018-02-04T03:34:41.426Z,99048.13
2018-02-04T03:37:08.988Z,99052.10
2018-02-04T03:39:36.602Z,99053.03
2018-02-04T03:42:04.162Z,99060.81
2018-02-04T03:44:31.700Z,99047.15
2018-02-04T03:46:59.281Z,99066.18
2018-02-04T03:49:26.877Z,99075.72
2018-02-04T03:51:54.446Z,99087.74
2018-02-04T03:54:22.010Z,99087.55
2018-02-04T03:56:49.609Z,99095.39
2018-02-04T03:59:17.167Z,99089.66
2018-02-04T04:01:44.728Z,99102.74
2018-02-04T04:04:12.308Z,99095.20
2018-02-04T04:06:39.876Z,99102.52
2018-02-04T04:09:07.446Z,99107.63
2018-02-04T04:11:35.090Z,99102.99
2018-02-04T04:14:02.716Z,99111.62
2018-02-04T04:16:30.338Z,99116.70
2018-02-04T04:18:57.918Z,99119.56
2018-02-04T04:21:25.492Z,99122.82
2018-02-04T04:23:53.110Z,99127.02
2018-02-04T04:26:20.743Z,99124.11
2018-02-04T04:28:48.308Z,99123.47
2018-02-04T04:31:15.918Z,99122.47
2018-02-04T04:33:43.560Z,99134.76
2018-02-04T04:36:11.185Z,99131.24
2018-02-04T04:38:38.758Z,99138.17
2018-02-04T04:41:06.326Z,99146.48
2018-02-04T04:43:33.897Z,99148.53
2018-02-04T04:46:01.449Z,99158.48
2018-02-04T04:48:29.066Z,99177.01
2018-02-04T04:50:56.634Z,99183.67
2018-02-04T04:53:24.200Z,99177.28
2018-02-04T04:55:51.883Z,99178.72
2018-02-04T04:58:19.446Z,99192.66
2018-02-04T05:00:47.020Z,99188.72
2018-02-04T05:03:14.683Z,99189.88
2018-02-04T05:05:42.269Z,99200.34
2018-02-04T05:08:09.827Z,99201.83
2018-02-04T05:10:37.391Z,99201.55
2018-02-04T05:13:04.976Z,99201.41
2018-02-04T05:15:32.598Z,99206.37
2018-02-04T05:18:00.241Z,99206.86
2018-02-04T05:20:27.861Z,99211.55
2018-02-04T05:22:55.466Z,99209.05
2018-02-04T05:25:23.083Z,99217.80
2018-02-04T05:27:50.641Z,99219.13
2018-02-04T05:30:18.202Z,99210.05
2018-02-04T05:32:45.813Z,99209.69
2018-02-04T05:35:13.438Z,99224.44
2018-02-04T05:37:40.991Z,99216.70
2018-02-04T05:40:08.606Z,99231.98
2018-02-04T05:42:36.165Z,99223.47
2018-02-04T05:45:03.706Z,99225.13
2018-02-04T05:47:31.303Z,99235.12
2018-02-04T05:49:58.973Z,99233.00
2018-02-04T05:52:26.528Z,99241.48
2018-02-04T05:54:54.138Z,99246.09
2018-02-04T05:57:21.853Z,99250.20
2018-02-04T05:59:49.457Z,99251.81
2018-02-04T06:02:17.005Z,99248.78
2018-02-04T06:04:44.570Z,99247.35
2018-02-04T06:07:12.136Z,99239.28
2018-02-04T06:09:39.739Z,99245.54
2018-02-04T06:12:07.355Z,99241.33
2018-02-04T06:14:34.955Z,99248.30
2018-02-04T06:17:02.582Z,99244.92
2018-02-04T06:19:30.251Z,99245.77
2018-02-04T06:21:57.967Z,99243.44
2018-02-04T06:24:25.570Z,99240.66
2018-02-04T06:26:53.186Z,99238.75
2018-02-04T06:29:20.826Z,99258.27
2018-02-04T06:31:48.508Z,99266.34
2018-02-04T06:34:16.158Z,99273.05
2018-02-04T06:36:43.789Z,99279.91
2018-02-04T06:39:11.348Z,99268.63
2018-02-04T06:41:38.922Z,99283.06
2018-02-04T06:44:06.550Z,99283.81
2018-02-04T06:46:34.179Z,99283.05
2018-02-04T06:49:01.735Z,99286.37
2018-02-04T06:51:29.335Z,99290.66
2018-02-04T06:53:56.889Z,99300.16
2018-02-04T06:56:24.442Z,99304.52
2018-02-04T06:58:52.062Z,99306.73
2018-02-04T07:01:19.665Z,99310.45
2018-02-04T07:03:47.343Z,99315.92
2018-02-04T07:06:14.938Z,99324.21
2018-02-04T07:08:42.497Z,99326.74
2018-02-04T07:11:10.131Z,99330.41
2018-02-04T07:13:37.743Z,99325.58
2018-02-04T07:16:05.310Z,99329.03
2018-02-04T07:18:32.870Z,99335.89
2018-02-04T07:21:00.485Z,99329.59
2018-02-04T07:23:28.111Z,99336.04
2018-02-04T07:25:55.666Z,99347.39
2018-02-04T07:28:23.240Z,99348.53
2018-02-04T07:30:50.810Z,99350.05
2018-02-04T07:33:18.391Z,99349.03
2018-02-04T07:35:46.036Z,99348.14
2018-02-04T07:38:13.657Z,99342.27
2018-02-04T07:40:41.228Z,99339.41
2018-02-04T07:43:08.852Z,99349.45
2018-02-04T07:45:36.522Z,99339.67
2018-02-04T07:48:04.088Z,99338.73
2018-02-04T07:50:31.682Z,99341.27
2018-02-04T07:52:59.249Z,99348.86
2018-02-04T07:55:26.828Z,99348.53
2018-02-04T07:57:54.437Z,99352.92
2018-02-04T08:00:22.058Z,99362.13
2018-02-04T08:02:49.665Z,99360.28
2018-02-04T08:05:17.217Z,99361.11
2018-02-04T08:07:44.788Z,99370.31
2018-02-04T08:10:12.411Z,99374.54
2018-02-04T08:12:40.013Z,99382.23
2018-02-04T08:15:07.649Z,99382.23
2018-02-04T08:17:35.225Z,99382.18
2018-02-04T08:20:02.886Z,99381.47
2018-02-04T08:22:30.448Z,99374.64
2018-02-04T08:24:58.076Z,99370.31
2018-02-04T08:27:25.705Z,99373.20
2018-02-04T08:29:53.316Z,99371.69
2018-02-04T08:32:20.950Z,99376.87
2018-02-04T08:34:48.508Z,99369.16
2018-02-04T08:37:16.190Z,99354.31
2018-02-04T08:39:43.745Z,99363.31
2018-02-04T08:42:11.306Z,99359.20
2018-02-04T08:44:38.874Z,99360.94
2018-02-04T08:47:07.445Z,99370.66
2018-02-04T08:49:35.646Z,99363.47
2018-02-04T08:52:03.301Z,99355.39
2018-02-04T08:54:31.027Z,99362.19
2018-02-04T08:56:58.591Z,99362.19
2018-02-04T08:59:26.150Z,99358.25
2018-02-04T09:01:53.736Z,99349.81
2018-02-04T09:04:21.307Z,99351.07
2018-02-04T09:06:48.883Z,99352.63
2018-02-04T09:09:16.498Z,99356.08
2018-02-04T09:11:44.166Z,99349.22
2018-02-04T09:14:11.734Z,99352.67
2018-02-04T09:16:39.292Z,99338.07
2018-02-04T09:19:06.916Z,99339.33
2018-02-04T09:21:34.471Z,99340.42
2018-02-04T09:24:02.113Z,99346.17
2018-02-04T09:26:29.678Z,99349.45
2018-02-04T09:28:57.297Z,99353.67
2018-02-04T09:31:24.861Z,99341.69
2018-02-04T09:33:52.483Z,99348.30
2018-02-04T09:36:20.151Z,99339.42
2018-02-04T09:38:47.710Z,99333.48
2018-02-04T09:41:15.284Z,99322.41
2018-02-04T09:43:42.911Z,99300.81
2018-02-04T09:46:10.522Z,99306.66
2018-02-04T09:48:38.143Z,99299.42
2018-02-04T09:51:05.694Z,99322.81
2018-02-04T09:53:33.262Z,99322.53
2018-02-04T09:56:00.813Z,99321.45
2018-02-04T09:58:28.382Z,99323.05
2018-02-04T10:00:55.954Z,99324.40
2018-02-04T10:03:23.539Z,99327.83
2018-02-04T10:05:51.093Z,99333.45
2018-02-04T10:08:18.645Z,99329.00
2018-02-04T10:10:46.225Z,99326.22
2018-02-04T10:13:13.851Z,99324.13
2018-02-04T10:15:41.464Z,99315.41
2018-02-04T10:18:09.023Z,99312.08
2018-02-04T10:20:36.700Z,99311.66
2018-02-04T10:23:04.327Z,99302.34
2018-02-04T10:25:31.885Z,99306.64
2018-02-04T10:27:59.493Z,99316.00
2018-02-04T10:30:27.110Z,99317.19
2018-02-04T10:32:54.744Z,99314.00
2018-02-04T10:35:22.401Z,99327.98
2018-02-04T10:37:50.087Z,99334.84
2018-02-04T10:40:17.653Z,99326.22
2018-02-04T10:42:45.249Z,99335.42
2018-02-04T10:45:12.882Z,99321.52
2018-02-04T10:47:40.503Z,99324.44
2018-02-04T10:50:08.149Z,99323.89
2018-02-04T10:52:35.774Z,99329.00
2018-02-04T10:55:03.446Z,99335.44
2018-02-04T10:57:31.066Z,99339.62
2018-02-04T10:59:58.631Z,99337.01
2018-02-04T11:02:26.204Z,99337.36
2018-02-04T11:04:53.769Z,99327.67
2018-02-04T11:07:21.330Z,99321.80
2018-02-04T11:09:48.904Z,99321.70
2018-02-04T11:12:16.547Z,99326.97
2018-02-04T11:14:44.403Z,99330.28
2018-02-04T11:17:11.987Z,99326.06
2018-02-04T11:19:39.554Z,99315.11
2018-02-04T11:22:07.106Z,99325.88
2018-02-04T11:24:34.732Z,99341.16
2018-02-04T11:27:02.290Z,99333.27
2018-02-04T11:29:29.940Z,99336.45
2018-02-04T11:31:57.588Z,99346.23
2018-02-04T11:34:25.155Z,99348.62
2018-02-04T11:36:52.739Z,99365.95
2018-02-04T11:39:20.317Z,99371.31
2018-02-04T11:41:47.892Z,99362.36
2018-02-04T11:44:15.521Z,99355.31
2018-02-04T11:46:43.205Z,99376.43
2018-02-04T11:49:10.782Z,99364.45
2018-02-04T11:51:38.379Z,99345.84
2018-02-04T11:54:06.047Z,99349.98
2018-02-04T11:56:33.650Z,99345.64
2018-02-04T11:59:01.957Z,99337.92
2018-02-04T12:01:29.588Z,99349.38
2018-02-04T12:03:58.108Z,99362.05
2018-02-04T12:06:26.559Z,99377.56
2018-02-04T12:08:54.180Z,99391.87
2018-02-04T12:11:21.749Z,99399.92
2018-02-04T12:13:49.379Z,99408.58
2018-02-04T12:16:17.014Z,99409.15
2018-02-04T12:18:44.559Z,99415.63
2018-02-04T12:21:12.134Z,99419.37
2018-02-04T12:23:39.773Z,99419.72
2018-02-04T12:26:07.334Z,99414.09
2018-02-04T12:28:34.945Z,99426.73
2018-02-04T12:31:02.521Z,99429.27
2018-02-04T12:33:30.147Z,99435.81
2018-02-04T12:35:57.714Z,99455.02
2018-02-04T12:38:25.274Z,99461.95
2018-02-04T12:40:52.907Z,99457.58
2018-02-04T12:43:20.477Z,99449.92
2018-02-04T12:45:48.211Z,99448.94
2018-02-04T12:48:15.796Z,99451.04
2018-02-04T12:50:43.417Z,99460.58
2018-02-04T12:53:10.994Z,99463.71
2018-02-04T12:55:38.560Z,99471.28
2018-02-04T12:58:06.201Z,99483.71
2018-02-04T13:00:33.829Z,99486.59
2018-02-04T13:03:01.477Z,99488.48
2018-02-04T13:05:29.045Z,99496.84
2018-02-04T13:07:56.606Z,99493.60
2018-02-04T13:10:24.192Z,99482.05
2018-02-04T13:12:51.753Z,99485.81
2018-02-04T13:15:19.334Z,99483.88
2018-02-04T13:17:46.899Z,99498.89
2018-02-04T13:20:14.578Z,99500.94
2018-02-04T13:22:42.140Z,99506.52
2018-02-04T13:25:09.710Z,99509.39
2018-02-04T13:27:37.280Z,99523.13
2018-02-04T13:30:04.853Z,99517.66
2018-02-04T13:32:32.478Z,99519.80
2018-02-04T13:35:00.040Z,99524.23
2018-02-04T13:37:27.683Z,99531.62
2018-02-04T13:39:55.257Z,99535.82
2018-02-04T13:42:22.840Z,99538.74
2018-02-04T13:44:50.468Z,99530.45
2018-02-04T13:47:18.085Z,99525.84
2018-02-04T13:49:45.700Z,99532.51
2018-02-04T13:52:13.287Z,99532.42
2018-02-04T13:54:40.852Z,99520.31
2018-02-04T13:57:08.494Z,99522.38
2018-02-04T13:59:36.123Z,99524.34
2018-02-04T14:02:03.692Z,99521.86
2018-02-04T14:04:31.257Z,99519.92
2018-02-04T14:06:58.906Z,99520.30
2018-02-04T14:09:26.523Z,99509.92
2018-02-04T14:11:54.090Z,99515.16
2018-02-04T14:14:21.650Z,99518.93
2018-02-04T14:16:49.253Z,99529.66
2018-02-04T14:19:16.880Z,99532.04
2018-02-04T14:21:44.518Z,99539.66
2018-02-04T14:24:12.127Z,99544.09
2018-02-04T14:26:39.698Z,99541.08
2018-02-04T14:29:07.262Z,99543.27
2018-02-04T14:31:34.844Z,99545.91
2018-02-04T14:34:02.441Z,99550.94
2018-02-04T14:36:30.072Z,99560.56
2018-02-04T14:38:57.644Z,99563.23
2018-02-04T14:41:25.272Z,99570.58
2018-02-04T14:43:53.886Z,99572.16
2018-02-04T14:46:21.559Z,99583.47
2018-02-04T14:48:49.192Z,99585.83
2018-02-04T14:51:16.750Z,99573.72
2018-02-04T14:53:44.352Z,99584.11
2018-02-04T14:56:11.979Z,99591.23
2018-02-04T14:58:39.554Z,99593.42
2018-02-04T15:01:07.125Z,99601.50
2018-02-04T15:03:34.843Z,99607.66
2018-02-04T15:06:02.440Z,99602.71
2018-02-04T15:08:30.000Z,99605.59
2018-02-04T15:10:57.666Z,99603.69
2018-02-04T15:13:25.290Z,99602.38
2018-02-04T15:15:52.911Z,99613.03
2018-02-04T15:18:20.641Z,99610.97
2018-02-04T15:20:48.433Z,99613.45
2018-02-04T15:23:16.081Z,99619.16
2018-02-04T15:25:44.661Z,99627.36
2018-02-04T15:28:12.382Z,99629.63
2018-02-04T15:30:40.114Z,99636.99
2018-02-04T15:33:07.854Z,99642.44
2018-02-04T15:35:35.540Z,99647.78
2018-02-04T15:38:03.176Z,99648.19
2018-02-04T15:40:30.798Z,99650.37
2018-02-04T15:42:59.413Z,99655.14
2018-02-04T15:45:27.819Z,99654.20
2018-02-04T15:47:56.107Z,99659.89
2018-02-04T15:50:23.685Z,99660.12
2018-02-04T15:52:51.263Z,99663.14
2018-02-04T15:55:18.908Z,99659.61
2018-02-04T15:57:46.651Z,99665.60
2018-02-04T16:00:14.273Z,99674.84
2018-02-04T16:02:41.906Z,99679.83
2018-02-04T16:05:09.546Z,99679.75
2018-02-04T16:07:37.170Z,99677.68
2018-02-04T16:10:04.752Z,99687.80
2018-02-04T16:12:32.439Z,99692.86
2018-02-04T16:15:00.148Z,99699.54
2018-02-04T16:17:27.828Z,99702.71
2018-02-04T16:19:55.458Z,99714.17
2018-02-04T16:22:23.056Z,99725.14
2018-02-04T16:24:50.710Z,99739.12
2018-02-04T16:27:18.285Z,99738.38
2018-02-04T16:29:45.937Z,99745.91
2018-02-04T16:32:13.491Z,99762.73
2018-02-04T16:34:41.066Z,99763.06
2018-02-04T16:37:08.664Z,99774.48
2018-02-04T16:39:36.225Z,99777.07
2018-02-04T16:42:03.802Z,99787.36
2018-02-04T16:44:31.380Z,99788.43
2018-02-04T16:46:59.170Z,99792.92
2018-02-04T16:49:26.790Z,99794.68
2018-02-04T16:51:54.354Z,99803.25
2018-02-04T16:54:22.004Z,99810.44
2018-02-04T16:56:49.631Z,99812.58
2018-02-04T16:59:17.216Z,99826.19
2018-02-04T17:01:44.882Z,99834.41
2018-02-04T17:04:12.521Z,99840.70
2018-02-04T17:06:40.096Z,99842.45
2018-02-04T17:09:07.755Z,99837.94
2018-02-04T17:11:35.332Z,99836.50
2018-02-04T17:14:02.966Z,99836.50
2018-02-04T17:16:30.548Z,99843.19
2018-02-04T17:18:58.174Z,99842.98
2018-02-04T17:21:25.868Z,99854.31
2018-02-04T17:23:53.436Z,99862.54
2018-02-04T17:26:21.006Z,99864.09
2018-02-04T17:28:48.586Z,99867.12
2018-02-04T17:31:16.191Z,99861.64
2018-02-04T17:33:43.829Z,99862.90
2018-02-04T17:36:11.407Z,99862.77
2018-02-04T17:38:39.023Z,99860.39
2018-02-04T17:41:06.676Z,99866.09
2018-02-04T17:43:34.247Z,99868.27
2018-02-04T17:46:01.823Z,99865.95
2018-02-04T17:48:29.474Z,99866.17
2018-02-04T17:50:57.103Z,99868.89
2018-02-04T17:53:24.715Z,99877.34
2018-02-04T17:55:52.382Z,99870.67
2018-02-04T17:58:20.010Z,99880.91
2018-02-04T18:00:47.586Z,99888.16
2018-02-04T18:03:15.159Z,99883.53
2018-02-04T18:05:42.730Z,99894.26
2018-02-04T18:08:10.365Z,99896.32
2018-02-04T18:10:37.986Z,99897.76
2018-02-04T18:13:05.610Z,99911.47
2018-02-04T18:15:33.188Z,99920.09
2018-02-04T18:18:01.547Z,99927.71
2018-02-04T18:20:29.123Z,99942.23
2018-02-04T18:22:56.743Z,99946.94
2018-02-04T18:25:24.322Z,99950.48
2018-02-04T18:27:51.910Z,99960.33
2018-02-04T18:30:19.698Z,99954.46
2018-02-04T18:32:47.272Z,99961.91
2018-02-04T18:35:14.841Z,99975.71
2018-02-04T18:37:42.427Z,99976.69
2018-02-04T18:40:10.043Z,99982.80
2018-02-04T18:42:37.610Z,99984.48
2018-02-04T18:45:05.250Z,99992.38
2018-02-04T18:47:32.890Z,100004.28
2018-02-04T18:50:00.583Z,100014.11
2018-02-04T18:52:28.242Z,100019.54
2018-02-04T18:54:55.851Z,100019.67
2018-02-04T18:57:23.472Z,100031.45
2018-02-04T18:59:51.156Z,100030.90
2018-02-04T19:02:18.734Z,100034.31
2018-02-04T19:04:46.559Z,100038.91
2018-02-04T19:07:15.320Z,100044.52
2018-02-04T19:09:42.929Z,100043.00
2018-02-04T19:12:10.599Z,100039.38
2018-02-04T19:14:38.357Z,100047.70
2018-02-04T19:17:05.975Z,100044.55
2018-02-04T19:19:33.535Z,100039.88
2018-02-04T19:22:01.743Z,100050.41
2018-02-04T19:24:29.628Z,100050.28
2018-02-04T19:26:57.447Z,100057.79
2018-02-04T19:29:25.078Z,100064.37
2018-02-04T19:31:52.682Z,100062.93
2018-02-04T19:34:20.323Z,100072.62
2018-02-04T19:36:47.925Z,100078.79
2018-02-04T19:39:15.510Z,100085.47
2018-02-04T19:41:43.219Z,100085.55
2018-02-04T19:44:10.833Z,100086.44
2018-02-04T19:46:38.499Z,100091.97
2018-02-04T19:49:06.097Z,100097.17
2018-02-04T19:51:33.783Z,100096.77
2018-02-04T19:54:01.353Z,100106.33
2018-02-04T19:56:29.444Z,100105.02
2018-02-04T19:58:57.094Z,100108.88
2018-02-04T20:01:24.673Z,100104.41
2018-02-04T20:03:52.376Z,100107.38
2018-02-04T20:06:19.960Z,100102.59
2018-02-04T20:08:47.530Z,100096.21
2018-02-04T20:11:16.090Z,100098.37
2018-02-04T20:13:43.692Z,100090.92
2018-02-04T20:16:11.289Z,100091.17
2018-02-04T20:18:38.862Z,100098.23
2018-02-04T20:21:06.578Z,100104.99
2018-02-04T20:23:34.202Z,100099.95
2018-02-04T20:26:01.779Z,100102.20
2018-02-04T20:28:29.343Z,100099.03
2018-02-04T20:30:57.015Z,100106.66
2018-02-04T20:33:25.626Z,100109.97
2018-02-04T20:35:53.194Z,100120.28
2018-02-04T20:38:21.171Z,100122.16
2018-02-04T20:40:49.160Z,100122.34
2018-02-04T20:43:16.743Z,100134.50
2018-02-04T20:45:44.342Z,100158.08
2018-02-04T20:48:11.956Z,100171.30
2018-02-04T20:50:39.582Z,100181.86
2018-02-04T20:53:07.239Z,100177.52
2018-02-04T20:55:34.848Z,100183.11
2018-02-04T20:58:02.426Z,100191.62
2018-02-04T21:00:30.009Z,100204.50
2018-02-04T21:02:57.597Z,100190.97
2018-02-04T21:05:25.146Z,100196.28
2018-02-04T21:07:52.939Z,100189.59
2018-02-04T21:10:20.574Z,100203.83
2018-02-04T21:12:48.241Z,100210.81
2018-02-04T21:15:15.900Z,100210.42
2018-02-04T21:17:43.531Z,100199.72
2018-02-04T21:20:11.190Z,100214.28
2018-02-04T21:22:39.084Z,100215.17
2018-02-04T21:25:06.763Z,100220.63
2018-02-04T21:27:34.334Z,100208.97
2018-02-04T21:30:01.964Z,100211.28
2018-02-04T21:32:29.555Z,100214.64
2018-02-04T21:34:57.191Z,100216.73
2018-02-04T21:37:24.811Z,100222.33
2018-02-04T21:39:52.378Z,100228.41
2018-02-04T21:42:19.999Z,100225.27
2018-02-04T21:44:47.742Z,100229.04
2018-02-04T21:47:15.362Z,100225.98
2018-02-04T21:49:42.952Z,100221.58
2018-02-04T21:52:10.528Z,100226.53
2018-02-04T21:54:38.108Z,100231.94
2018-02-04T21:57:06.015Z,100241.20
2018-02-04T21:59:33.821Z,100253.00
2018-02-04T22:02:01.459Z,100255.75
2018-02-04T22:04:29.035Z,100261.13
2018-02-04T22:06:56.667Z,100261.95
2018-02-04T22:09:24.297Z,100268.80
2018-02-04T22:11:51.935Z,100270.98
2018-02-04T22:14:19.604Z,100278.14
2018-02-04T22:16:47.241Z,100275.45
2018-02-04T22:19:14.806Z,100275.64
2018-02-04T22:21:42.443Z,100289.22
2018-02-04T22:24:10.099Z,100292.23
2018-02-04T22:26:37.737Z,100285.53
2018-02-04T22:29:05.317Z,100291.69
2018-02-04T22:31:32.901Z,100304.98
2018-02-04T22:34:00.588Z,100304.55
2018-02-04T22:36:28.215Z,100300.99
2018-02-04T22:38:55.790Z,100302.94
2018-02-04T22:41:23.362Z,100307.14
2018-02-04T22:43:50.989Z,100308.84
2018-02-04T22:46:18.618Z,100313.34
2018-02-04T22:48:46.191Z,100319.11
2018-02-04T22:51:13.839Z,100320.09
2018-02-04T22:53:41.482Z,100318.21
2018-02-04T22:56:09.033Z,100323.16
2018-02-04T22:58:36.606Z,100330.65
2018-02-04T23:01:04.175Z,100341.88
2018-02-04T23:03:31.758Z,100345.94
2018-02-04T23:05:59.322Z,100343.86
2018-02-04T23:08:26.937Z,100344.30
2018-02-04T23:10:54.515Z,100352.28
2018-02-04T23:13:22.142Z,100353.19
2018-02-04T23:15:49.714Z,100357.05
2018-02-04T23:18:17.315Z,100359.52
2018-02-04T23:20:44.930Z,100356.48
2018-02-04T23:23:12.581Z,100356.54
2018-02-04T23:25:40.209Z,100357.19
2018-02-04T23:28:07.842Z,100363.04
2018-02-04T23:30:35.466Z,100367.84
2018-02-04T23:33:03.046Z,100372.92
2018-02-04T23:35:30.610Z,100369.52
2018-02-04T23:37:58.186Z,100375.25
2018-02-04T23:40:25.734Z,100368.20
2018-02-04T23:42:53.324Z,100371.45
2018-02-04T23:45:20.948Z,100381.02
2018-02-04T23:47:48.585Z,100374.86
2018-02-04T23:50:16.162Z,100381.27
2018-02-04T23:52:43.730Z,100386.02
2018-02-04T23:55:11.341Z,100392.23
2018-02-04T23:57:38.965Z,100395.03
